岡山グライダークラブ活動状況掲示板

岡山グライダークラブ
岡山市浦安南町639-1 岡南飛行場
 使用機:シャイベ式 SF25C型 ファルケ   JA2330
      ヴァレンティン式17E型 タイフーン  JA2342
 練習日:毎日曜日  クラブルーム:電話 086-265-1810
この掲示板は岡山グライダークラブの活動状況をお知らせする掲示板です。
!!!この掲示板は投稿規制をしています。!!!
クラブ関連各種情報は 岡山グライダークラブクラブルーム      を       .
  ブリーフイング情報は  岡山グライダークラブブリーフィングルーム  をご覧下さい。 .
※写真はクリックすると拡大して見ることが出来ます。
岡南飛行場へのアクセス等は 岡南飛行場管理事務所 をご覧ください。
クラブの ホームページ ができました。

!!!当クラブの見学等を希望される方は こちら をご覧ください!!!

 
02月07日 
by OGC at 2021/2/7(日) 19:13:01 No.20210207185816  削除コメント
1024 x 768 x 78,113バイト
No.1

02月07日
本日のリモート参加者
  会員      13名
  その他      0名


@本日の様子






METAR
RJBK 070000Z VRB01KT 10KM FEW025 06/04 Q1017 A3003
RJOB 070000Z 24006KT 9999 FEW020 08/04 Q1016
RJOT 070000Z 25006KT 9999 FEW025 SCT100 11/05 Q1016
RJOA 070000Z 29005KT 9999 FEW020 07/04 Q1016
TAF
RJOB 062310Z 0700/0806 27011KT 9999 FEW025 SCT045
     TEMPO 0803/0806 29016G27KT
RJOT 062309Z 0700/0806 27013KT 9999 FEW025 SCT045
     BECMG 0712/0715 15005KT
     BECMG 0718/0721 28018KT
     TEMPO 0800/0806 28020G30KT
RJOA 062306Z 0700/0806 28010KT 9999 FEW025 SCT035
     TEMPO 0800/0806 29018G28KT


本日、第3回リモートブリーフィングを開催し、google earth,Windyの上手な利用の仕方について講義がありました。


集合 10:00 解散    11:00

本日のフライトはありません。

    << 戻る || ホームページ || 最新の掲示板へ